createdAt,value
2018-11-29T00:01:12.506Z,101460.81
2018-11-29T00:03:42.474Z,101460.39
2018-11-29T00:06:13.159Z,101460.01
2018-11-29T00:08:43.747Z,101451.44
2018-11-29T00:11:13.887Z,101444.63
2018-11-29T00:13:43.969Z,101448.88
2018-11-29T00:16:14.909Z,101448.88
2018-11-29T00:18:46.282Z,101436.56
2018-11-29T00:21:16.894Z,101431.02
2018-11-29T00:23:47.442Z,101428.91
2018-11-29T00:26:17.557Z,101427.19
2018-11-29T00:28:48.326Z,101414.03
2018-11-29T00:31:19.440Z,101417.03
2018-11-29T00:33:50.086Z,101414.92
2018-11-29T00:36:20.688Z,101405.95
2018-11-29T00:38:51.287Z,101405.95
2018-11-29T00:41:22.271Z,101417.05
2018-11-29T00:43:52.840Z,101415.77
2018-11-29T00:46:23.310Z,101415.38
2018-11-29T00:48:54.905Z,101416.66
2018-11-29T00:51:25.519Z,101414.54
2018-11-29T00:53:56.667Z,101406.92
2018-11-29T00:56:26.814Z,101406.48
2018-11-29T00:58:57.527Z,101403.45
2018-11-29T01:01:28.476Z,101402.61
2018-11-29T01:04:00.373Z,101406.87
2018-11-29T01:06:31.767Z,101405.61
2018-11-29T01:09:03.080Z,101413.27
2018-11-29T01:11:33.798Z,101422.25
2018-11-29T01:14:03.909Z,101426.13
2018-11-29T01:16:35.440Z,101436.75
2018-11-29T01:19:05.698Z,101432.47
2018-11-29T01:21:36.005Z,101426.09
2018-11-29T01:24:06.771Z,101422.30
2018-11-29T01:26:37.482Z,101423.14
2018-11-29T01:29:08.049Z,101421.47
2018-11-29T01:31:38.734Z,101416.80
2018-11-29T01:34:08.805Z,101406.61
2018-11-29T01:36:39.285Z,101401.06
2018-11-29T01:39:10.720Z,101400.15
2018-11-29T01:41:41.633Z,101396.75
2018-11-29T01:44:11.691Z,101395.05
2018-11-29T01:46:42.546Z,101387.81
2018-11-29T01:49:13.850Z,101396.76
2018-11-29T01:51:44.017Z,101392.58
2018-11-29T01:54:14.606Z,101406.66
2018-11-29T01:56:44.826Z,101396.02
2018-11-29T01:59:16.301Z,101397.30
2018-11-29T02:01:46.270Z,101396.44
2018-11-29T02:04:16.916Z,101398.59
2018-11-29T02:06:47.025Z,101399.87
2018-11-29T02:09:17.286Z,101395.61
2018-11-29T02:11:49.228Z,101404.14
2018-11-29T02:14:20.855Z,101411.80
2018-11-29T02:16:52.137Z,101410.95
2018-11-29T02:19:23.290Z,101403.68
2018-11-29T02:21:54.760Z,101393.47
2018-11-29T02:24:26.497Z,101401.98
2018-11-29T02:26:58.029Z,101400.27
2018-11-29T02:29:28.890Z,101403.27
2018-11-29T02:31:59.516Z,101402.00
2018-11-29T02:34:30.362Z,101406.25
2018-11-29T02:37:00.489Z,101393.86
2018-11-29T02:39:31.203Z,101387.45
2018-11-29T02:42:02.094Z,101376.38
2018-11-29T02:44:33.759Z,101366.14
2018-11-29T02:47:05.151Z,101367.83
2018-11-29T02:49:37.660Z,101365.27
2018-11-29T02:52:08.658Z,101370.38
2018-11-29T02:54:39.159Z,101365.66
2018-11-29T02:57:10.521Z,101361.84
2018-11-29T02:59:41.735Z,101370.38
2018-11-29T03:02:13.049Z,101366.96
2018-11-29T03:04:44.310Z,101376.33
2018-11-29T03:07:14.559Z,101374.22
2018-11-29T03:09:44.623Z,101370.36
2018-11-29T03:12:16.550Z,101371.13
2018-11-29T03:14:47.497Z,101371.88
2018-11-29T03:17:18.356Z,101363.63
2018-11-29T03:19:49.068Z,101346.94
2018-11-29T03:22:19.945Z,101340.48
2018-11-29T03:24:51.093Z,101345.59
2018-11-29T03:27:21.691Z,101346.85
2018-11-29T03:29:53.351Z,101354.93
2018-11-29T03:32:23.574Z,101356.18
2018-11-29T03:34:53.631Z,101357.89
2018-11-29T03:37:24.822Z,101348.06
2018-11-29T03:39:55.527Z,101356.09
2018-11-29T03:42:25.606Z,101348.45
2018-11-29T03:44:56.751Z,101346.27
2018-11-29T03:47:27.577Z,101333.02
2018-11-29T03:49:58.385Z,101336.82
2018-11-29T03:52:29.048Z,101344.06
2018-11-29T03:55:00.444Z,101349.23
2018-11-29T03:57:30.539Z,101337.28
2018-11-29T04:00:00.630Z,101319.33
2018-11-29T04:02:31.643Z,101317.20
2018-11-29T04:05:02.756Z,101327.02
2018-11-29T04:07:33.487Z,101325.26
2018-11-29T04:10:03.800Z,101338.94
2018-11-29T04:12:35.016Z,101337.17
2018-11-29T04:15:05.933Z,101333.75
2018-11-29T04:17:40.639Z,101336.71
2018-11-29T04:20:13.558Z,101331.17
2018-11-29T04:22:43.784Z,101340.12
2018-11-29T04:25:15.090Z,101337.49
2018-11-29T04:27:46.045Z,101341.32
2018-11-29T04:30:17.461Z,101341.28
2018-11-29T04:32:47.521Z,101340.90
2018-11-29T04:35:17.874Z,101343.07
2018-11-29T04:37:48.454Z,101340.91
2018-11-29T04:40:18.869Z,101332.83
2018-11-29T04:42:49.063Z,101334.06
2018-11-29T04:45:20.006Z,101325.95
2018-11-29T04:47:50.055Z,101322.09
2018-11-29T04:50:21.378Z,101320.02
2018-11-29T04:52:53.116Z,101311.06
2018-11-29T04:55:23.747Z,101314.91
2018-11-29T04:57:55.022Z,101321.73
2018-11-29T05:00:25.109Z,101314.95
2018-11-29T05:02:56.811Z,101319.26
2018-11-29T05:05:28.263Z,101319.25
2018-11-29T05:07:59.557Z,101323.59
2018-11-29T05:10:30.191Z,101319.25
2018-11-29T05:13:00.443Z,101314.59
2018-11-29T05:15:31.194Z,101305.15
2018-11-29T05:18:01.963Z,101302.95
2018-11-29T05:20:32.759Z,101299.44
2018-11-29T05:23:04.037Z,101300.86
2018-11-29T05:25:35.385Z,101299.89
2018-11-29T05:28:05.622Z,101303.75
2018-11-29T05:30:35.740Z,101304.25
2018-11-29T05:33:05.861Z,101311.94
2018-11-29T05:35:37.218Z,101305.53
2018-11-29T05:38:07.336Z,101307.64
2018-11-29T05:40:37.433Z,101296.91
2018-11-29T05:43:07.889Z,101288.23
2018-11-29T05:45:38.402Z,101284.51
2018-11-29T05:48:08.768Z,101287.95
2018-11-29T05:50:39.722Z,101280.66
2018-11-29T05:53:10.799Z,101286.23
2018-11-29T05:55:41.680Z,101291.82
2018-11-29T05:58:11.774Z,101279.53
2018-11-29T06:00:42.534Z,101285.89
2018-11-29T06:03:13.665Z,101287.19
2018-11-29T06:05:45.188Z,101283.83
2018-11-29T06:08:15.470Z,101287.73
2018-11-29T06:10:47.640Z,101279.11
2018-11-29T06:13:18.379Z,101277.42
2018-11-29T06:15:49.102Z,101278.72
2018-11-29T06:18:19.229Z,101268.83
2018-11-29T06:20:49.406Z,101273.08
2018-11-29T06:32:34.215Z,101263.98
2018-11-29T06:35:04.871Z,101268.20
2018-11-29T06:37:35.243Z,101262.19
2018-11-29T06:40:08.513Z,101259.58
2018-11-29T06:42:38.945Z,101262.91
2018-11-29T06:45:17.704Z,101268.98
2018-11-29T06:47:48.475Z,101273.20
2018-11-29T06:50:18.598Z,101280.02
2018-11-29T06:55:49.317Z,101271.37
2018-11-29T06:58:20.174Z,101274.40
2018-11-29T07:00:50.933Z,101270.23
2018-11-29T07:03:21.030Z,101263.86
2018-11-29T07:05:51.816Z,101272.73
2018-11-29T07:08:22.780Z,101264.37
2018-11-29T07:10:53.552Z,101261.25
2018-11-29T07:13:25.005Z,101258.01
2018-11-29T07:15:55.134Z,101261.46
2018-11-29T07:18:25.975Z,101267.50
2018-11-29T07:21:13.410Z,101261.95
2018-11-29T07:23:43.432Z,101266.62
2018-11-29T07:26:13.431Z,101254.94
2018-11-29T07:28:44.015Z,101259.52
2018-11-29T07:31:14.714Z,101262.53
2018-11-29T07:33:45.453Z,101269.80
2018-11-29T07:36:16.100Z,101255.28
2018-11-29T07:38:46.896Z,101263.73
2018-11-29T07:41:18.170Z,101264.49
2018-11-29T07:43:49.327Z,101258.47
2018-11-29T07:46:21.241Z,101254.06
2018-11-29T07:48:51.934Z,101250.23
2018-11-29T07:51:24.943Z,101259.86
2018-11-29T07:53:55.185Z,101246.91
2018-11-29T07:56:26.899Z,101245.08
2018-11-29T07:58:57.355Z,101250.06
2018-11-29T08:01:27.442Z,101250.41
2018-11-29T08:03:57.452Z,101249.42
2018-11-29T08:06:28.710Z,101260.94
2018-11-29T08:12:00.187Z,101254.77
2018-11-29T08:14:30.290Z,101254.80
2018-11-29T08:17:01.159Z,101258.33
2018-11-29T08:19:32.267Z,101252.30
2018-11-29T08:22:04.475Z,101254.36
2018-11-29T08:24:34.610Z,101263.84
2018-11-29T08:27:04.824Z,101261.17
2018-11-29T08:29:36.202Z,101250.45
2018-11-29T08:32:06.362Z,101248.52
2018-11-29T08:34:37.022Z,101245.19
2018-11-29T08:37:07.766Z,101239.20
2018-11-29T08:39:38.030Z,101239.15
2018-11-29T08:42:09.029Z,101240.75
2018-11-29T08:44:39.995Z,101225.38
2018-11-29T08:47:10.910Z,101221.14
2018-11-29T08:49:41.840Z,101218.67
2018-11-29T08:52:30.086Z,101219.34
2018-11-29T08:55:00.717Z,101212.19
2018-11-29T08:57:31.338Z,101216.00
2018-11-29T09:00:02.301Z,101226.20
2018-11-29T09:02:33.149Z,101219.72
2018-11-29T09:05:03.186Z,101216.25
2018-11-29T09:07:34.435Z,101209.21
2018-11-29T09:10:05.552Z,101204.01
2018-11-29T09:12:36.170Z,101207.02
2018-11-29T09:15:11.014Z,101218.36
2018-11-29T09:17:43.114Z,101209.36
2018-11-29T09:20:16.586Z,101207.92
2018-11-29T09:22:48.146Z,101197.77
2018-11-29T09:25:20.406Z,101202.17
2018-11-29T09:27:51.399Z,101205.59
2018-11-29T09:30:22.547Z,101203.82
2018-11-29T09:32:55.438Z,101194.30
2018-11-29T09:35:25.931Z,101222.59
2018-11-29T09:37:56.823Z,101207.13
2018-11-29T09:40:27.047Z,101217.00
2018-11-29T09:42:57.963Z,101204.46
2018-11-29T09:45:29.395Z,101218.20
2018-11-29T09:48:00.704Z,101204.49
2018-11-29T09:50:30.914Z,101200.92
2018-11-29T09:53:01.466Z,101201.23
2018-11-29T09:55:32.558Z,101198.05
2018-11-29T09:58:02.579Z,101189.45
2018-11-29T10:00:33.641Z,101189.80
2018-11-29T10:03:11.743Z,101191.89
2018-11-29T10:05:43.570Z,101201.25
2018-11-29T10:08:16.678Z,101192.76
2018-11-29T10:11:09.134Z,101182.70
2018-11-29T10:13:46.040Z,101180.13
2018-11-29T10:16:09.656Z,101173.77
2018-11-29T10:18:41.003Z,101176.68
2018-11-29T10:21:15.463Z,101171.12
2018-11-29T10:23:46.187Z,101161.00
2018-11-29T10:26:17.104Z,101157.19
2018-11-29T10:28:47.757Z,101153.16
2018-11-29T10:31:19.231Z,101155.78
2018-11-29T10:33:51.157Z,101148.97
2018-11-29T10:36:21.287Z,101146.13
2018-11-29T10:38:52.957Z,101138.63
2018-11-29T10:41:23.034Z,101140.97
2018-11-29T10:43:55.062Z,101138.61
2018-11-29T10:46:25.167Z,101146.17
2018-11-29T10:48:56.034Z,101145.52
2018-11-29T10:51:27.591Z,101136.79
2018-11-29T10:53:58.941Z,101135.00
2018-11-29T10:56:29.622Z,101131.89
2018-11-29T10:58:59.775Z,101128.10
2018-11-29T11:01:31.896Z,101118.25
2018-11-29T11:04:03.269Z,101120.41
2018-11-29T11:06:34.102Z,101110.16
2018-11-29T11:09:04.501Z,101106.33
2018-11-29T11:11:35.602Z,101103.29
2018-11-29T11:14:06.889Z,101104.91
2018-11-29T11:16:38.099Z,101108.73
2018-11-29T11:19:08.256Z,101109.56
2018-11-29T11:21:38.285Z,101113.06
2018-11-29T11:24:08.894Z,101111.34
2018-11-29T11:26:39.186Z,101110.47
2018-11-29T11:29:09.474Z,101109.10
2018-11-29T11:31:40.500Z,101105.78
2018-11-29T11:34:10.539Z,101108.36
2018-11-29T11:36:41.199Z,101096.31
2018-11-29T11:39:12.237Z,101096.22
2018-11-29T11:41:42.416Z,101085.58
2018-11-29T11:44:13.374Z,101099.22
2018-11-29T11:46:44.573Z,101097.47
2018-11-29T11:49:14.727Z,101100.16
2018-11-29T11:51:45.944Z,101093.00
2018-11-29T11:54:17.252Z,101109.59
2018-11-29T11:56:47.412Z,101098.08
2018-11-29T11:59:17.869Z,101101.44
2018-11-29T12:01:48.475Z,101100.89
2018-11-29T12:04:18.677Z,101100.75
2018-11-29T12:06:49.226Z,101097.13
2018-11-29T12:09:19.401Z,101092.97
2018-11-29T12:11:50.379Z,101093.25
2018-11-29T12:14:20.584Z,101098.05
2018-11-29T12:16:51.354Z,101093.11
2018-11-29T12:19:22.873Z,101087.04
2018-11-29T12:21:54.456Z,101077.78
2018-11-29T12:24:25.973Z,101065.20
2018-11-29T12:26:56.171Z,101060.83
2018-11-29T12:29:27.546Z,101051.34
2018-11-29T12:31:58.410Z,101057.69
2018-11-29T12:34:29.161Z,101057.70
2018-11-29T12:37:00.066Z,101053.32
2018-11-29T12:39:31.328Z,101054.97
2018-11-29T12:42:01.381Z,101052.71
2018-11-29T12:44:31.517Z,101050.47
2018-11-29T12:47:02.244Z,101029.70
2018-11-29T12:49:32.959Z,101024.43
2018-11-29T12:52:03.808Z,101019.88
2018-11-29T12:54:34.944Z,101009.64
2018-11-29T12:57:06.013Z,101003.08
2018-11-29T12:59:38.492Z,100995.20
2018-11-29T13:02:08.889Z,100990.76
2018-11-29T13:04:38.918Z,100987.34
2018-11-29T13:07:09.606Z,100981.20
2018-11-29T13:09:40.337Z,100978.94
2018-11-29T13:12:10.822Z,100966.61
2018-11-29T13:14:41.706Z,100969.30
2018-11-29T13:17:12.512Z,100966.45
2018-11-29T13:19:44.712Z,100971.00
2018-11-29T13:22:14.927Z,100962.58
2018-11-29T13:24:45.281Z,100966.14
2018-11-29T13:27:16.093Z,100964.23
2018-11-29T13:29:46.929Z,100963.56
2018-11-29T13:32:17.625Z,100958.91
2018-11-29T13:34:48.284Z,100951.02
2018-11-29T13:37:19.510Z,100950.15
2018-11-29T13:39:51.308Z,100951.65
2018-11-29T13:42:22.159Z,100956.80
2018-11-29T13:44:59.524Z,100947.92
2018-11-29T13:47:31.581Z,100945.34
2018-11-29T13:50:02.864Z,100946.84
2018-11-29T13:52:33.987Z,100941.02
2018-11-29T13:55:04.302Z,100934.41
2018-11-29T13:57:35.021Z,100941.02
2018-11-29T14:00:05.994Z,100925.95
2018-11-29T14:05:37.493Z,100933.21
2018-11-29T14:08:09.148Z,100928.32
2018-11-29T14:10:40.846Z,100927.12
2018-11-29T14:13:11.188Z,100925.79
2018-11-29T14:15:41.498Z,100928.27
2018-11-29T14:18:12.397Z,100925.37
2018-11-29T14:20:43.149Z,100922.68
2018-11-29T14:23:14.353Z,100914.93
2018-11-29T14:25:45.022Z,100921.23
2018-11-29T14:28:15.246Z,100910.70
2018-11-29T14:30:46.491Z,100909.92
2018-11-29T14:33:18.538Z,100915.96
2018-11-29T14:35:49.685Z,100908.73
2018-11-29T14:38:20.429Z,100913.00
2018-11-29T14:40:50.854Z,100913.33
2018-11-29T14:43:21.020Z,100911.63
2018-11-29T14:45:52.866Z,100913.38
2018-11-29T14:48:24.533Z,100912.00
2018-11-29T14:51:02.499Z,100912.35
2018-11-29T14:53:31.506Z,100904.12
2018-11-29T14:56:02.549Z,100895.84
2018-11-29T14:58:33.427Z,100897.36
2018-11-29T15:01:03.562Z,100896.86
2018-11-29T15:03:33.681Z,100902.06
2018-11-29T15:06:04.666Z,100896.02
2018-11-29T15:08:35.426Z,100896.52
2018-11-29T15:11:05.842Z,100898.21
2018-11-29T15:13:36.495Z,100901.42
2018-11-29T15:16:07.183Z,100895.55
2018-11-29T15:18:38.443Z,100895.13
2018-11-29T15:21:10.051Z,100894.98
2018-11-29T15:23:40.562Z,100891.44
2018-11-29T15:26:12.244Z,100888.77
2018-11-29T15:28:43.800Z,100883.41
2018-11-29T15:31:20.294Z,100879.59
2018-11-29T15:33:50.457Z,100870.47
2018-11-29T15:36:21.457Z,100864.03
2018-11-29T15:38:53.378Z,100872.12
2018-11-29T15:41:24.267Z,100867.58
2018-11-29T15:43:55.542Z,100861.63
2018-11-29T15:46:25.732Z,100866.15
2018-11-29T15:48:57.684Z,100862.12
2018-11-29T15:51:28.667Z,100861.16
2018-11-29T15:53:59.271Z,100861.22
2018-11-29T15:56:31.023Z,100860.48
2018-11-29T15:59:01.050Z,100855.75
2018-11-29T16:01:30.989Z,100856.77
2018-11-29T16:04:01.803Z,100861.52
2018-11-29T16:06:33.703Z,100865.78
2018-11-29T16:09:05.405Z,100859.16
2018-11-29T16:11:36.014Z,100859.57
2018-11-29T16:14:06.257Z,100851.91
2018-11-29T16:16:37.205Z,100844.31
2018-11-29T16:19:07.430Z,100842.89
2018-11-29T16:21:37.686Z,100835.86
2018-11-29T16:24:08.653Z,100833.99
2018-11-29T16:26:38.787Z,100828.27
2018-11-29T16:29:08.923Z,100823.80
2018-11-29T16:31:39.059Z,100812.89
2018-11-29T16:34:09.127Z,100812.63
2018-11-29T16:36:39.112Z,100812.94
2018-11-29T16:39:10.169Z,100817.00
2018-11-29T16:41:41.509Z,100806.66
2018-11-29T16:44:12.963Z,100810.56
2018-11-29T16:49:43.962Z,100795.74
2018-11-29T16:52:13.984Z,100790.04
2018-11-29T16:54:45.084Z,100782.77
2018-11-29T16:57:15.958Z,100782.16
2018-11-29T16:59:47.713Z,100782.42
2018-11-29T17:02:17.850Z,100774.48
2018-11-29T17:04:48.663Z,100767.73
2018-11-29T17:07:19.225Z,100767.22
2018-11-29T17:09:50.767Z,100760.30
2018-11-29T17:12:22.572Z,100756.18
2018-11-29T17:14:53.368Z,100748.80
2018-11-29T17:17:24.644Z,100762.47
2018-11-29T17:19:56.966Z,100764.28
2018-11-29T17:22:27.137Z,100760.26
2018-11-29T17:24:58.364Z,100749.81
2018-11-29T17:27:28.893Z,100746.86
2018-11-29T17:29:59.738Z,100727.91
2018-11-29T17:32:29.825Z,100722.09
2018-11-29T17:35:01.316Z,100718.02
2018-11-29T17:37:32.041Z,100714.09
2018-11-29T17:40:02.049Z,100703.80
2018-11-29T17:42:34.130Z,100709.05
2018-11-29T17:45:04.517Z,100715.80
2018-11-29T17:47:35.364Z,100709.46
2018-11-29T17:50:08.821Z,100718.06
2018-11-29T17:52:38.905Z,100708.50
2018-11-29T17:55:09.188Z,100695.63
2018-11-29T17:57:40.923Z,100684.16
2018-11-29T18:00:22.733Z,100661.95
2018-11-29T18:02:53.835Z,100656.45
2018-11-29T18:05:24.785Z,100666.06
2018-11-29T18:08:08.433Z,100706.94
2018-11-29T18:10:40.807Z,100655.95
2018-11-29T18:13:21.344Z,100700.77
2018-11-29T18:15:52.009Z,100726.59
2018-11-29T18:18:22.157Z,100724.25
2018-11-29T18:20:52.566Z,100705.65
2018-11-29T18:23:22.645Z,100682.27
2018-11-29T18:25:52.722Z,100696.23
2018-11-29T18:28:22.794Z,100713.41
2018-11-29T18:30:54.081Z,100703.36
2018-11-29T18:33:25.441Z,100708.73
2018-11-29T18:35:55.529Z,100720.16
2018-11-29T18:38:26.686Z,100746.77
2018-11-29T18:40:56.825Z,100734.46
2018-11-29T18:43:27.631Z,100740.11
2018-11-29T18:45:58.831Z,100729.22
2018-11-29T18:48:29.625Z,100726.66
2018-11-29T18:51:00.622Z,100727.30
2018-11-29T18:53:30.850Z,100731.52
2018-11-29T18:56:02.274Z,100688.31
2018-11-29T18:58:32.428Z,100685.70
2018-11-29T19:01:02.777Z,100694.52
2018-11-29T19:03:33.051Z,100697.59
2018-11-29T19:06:14.340Z,100690.14
2018-11-29T19:08:45.006Z,100676.25
2018-11-29T19:11:15.687Z,100691.60
2018-11-29T19:13:46.425Z,100706.08
2018-11-29T19:16:16.775Z,100694.75
2018-11-29T19:18:47.216Z,100677.34
2018-11-29T19:21:17.196Z,100673.02
2018-11-29T19:23:47.126Z,100662.59
2018-11-29T19:26:17.441Z,100657.67
2018-11-29T19:28:49.523Z,100646.20
2018-11-29T19:31:19.804Z,100651.76
2018-11-29T19:33:51.218Z,100684.91
2018-11-29T19:36:22.850Z,100689.42
2018-11-29T19:38:53.534Z,100713.50
2018-11-29T19:41:24.302Z,100714.21
2018-11-29T19:43:55.072Z,100718.75
2018-11-29T19:46:25.646Z,100722.25
2018-11-29T19:48:55.810Z,100721.16
2018-11-29T19:51:26.563Z,100728.15
2018-11-29T19:53:56.647Z,100728.58
2018-11-29T19:56:28.146Z,100718.97
2018-11-29T19:58:58.225Z,100707.07
2018-11-29T20:01:28.925Z,100716.85
2018-11-29T20:03:59.134Z,100719.51
2018-11-29T20:06:30.581Z,100714.75
2018-11-29T20:09:02.139Z,100707.84
2018-11-29T20:11:32.992Z,100697.87
2018-11-29T20:14:03.097Z,100701.45
2018-11-29T20:16:34.069Z,100694.17
2018-11-29T20:19:04.648Z,100694.66
2018-11-29T20:21:34.953Z,100694.87
2018-11-29T20:24:05.194Z,100698.73
2018-11-29T20:26:35.454Z,100695.24
2018-11-29T20:29:05.802Z,100693.66
2018-11-29T20:31:36.244Z,100700.22
2018-11-29T20:34:06.611Z,100698.34
2018-11-29T20:36:36.910Z,100696.00
2018-11-29T20:39:10.078Z,100700.73
2018-11-29T20:41:41.125Z,100692.94
2018-11-29T20:44:12.114Z,100689.79
2018-11-29T20:46:42.481Z,100689.47
2018-11-29T20:49:13.248Z,100680.34
2018-11-29T20:51:44.091Z,100678.11
2018-11-29T20:54:14.304Z,100671.00
2018-11-29T20:56:45.669Z,100687.17
2018-11-29T20:59:17.472Z,100688.35
2018-11-29T21:01:47.664Z,100687.92
2018-11-29T21:04:17.684Z,100688.64
2018-11-29T21:06:48.792Z,100689.64
2018-11-29T21:09:18.984Z,100681.55
2018-11-29T21:11:49.698Z,100671.20
2018-11-29T21:14:19.829Z,100663.32
2018-11-29T21:16:52.696Z,100675.56
2018-11-29T21:19:22.947Z,100694.39
2018-11-29T21:21:53.122Z,100705.06
2018-11-29T21:24:24.403Z,100706.84
2018-11-29T21:26:55.369Z,100700.09
2018-11-29T21:29:27.133Z,100680.92
2018-11-29T21:31:58.757Z,100679.55
2018-11-29T21:34:29.498Z,100684.42
2018-11-29T21:37:00.742Z,100689.13
2018-11-29T21:39:31.011Z,100676.28
2018-11-29T21:42:01.207Z,100682.92
2018-11-29T21:44:31.418Z,100682.20
2018-11-29T21:47:02.022Z,100672.23
2018-11-29T21:49:32.154Z,100682.75
2018-11-29T21:52:04.534Z,100682.11
2018-11-29T21:54:35.371Z,100676.17
2018-11-29T21:57:05.438Z,100676.47
2018-11-29T21:59:36.157Z,100683.15
2018-11-29T22:02:07.982Z,100668.33
2018-11-29T22:04:38.161Z,100654.02
2018-11-29T22:07:08.370Z,100634.91
2018-11-29T22:09:40.010Z,100631.44
2018-11-29T22:12:10.226Z,100631.47
2018-11-29T22:14:41.504Z,100627.71
2018-11-29T22:17:11.521Z,100634.22
2018-11-29T22:19:42.275Z,100636.14
2018-11-29T22:22:13.512Z,100649.74
2018-11-29T22:24:44.302Z,100641.95
2018-11-29T22:27:15.645Z,100638.62
2018-11-29T22:29:46.988Z,100647.05
2018-11-29T22:32:17.650Z,100652.86
2018-11-29T22:34:49.258Z,100648.11
2018-11-29T22:37:20.682Z,100656.94
2018-11-29T22:39:52.055Z,100648.51
2018-11-29T22:42:22.358Z,100645.77
2018-11-29T22:44:53.045Z,100653.45
2018-11-29T22:47:23.318Z,100650.61
2018-11-29T22:49:54.051Z,100664.16
2018-11-29T22:52:24.885Z,100655.83
2018-11-29T22:54:55.037Z,100652.16
2018-11-29T22:57:25.222Z,100642.82
2018-11-29T22:59:56.421Z,100653.97
2018-11-29T23:02:27.670Z,100655.66
2018-11-29T23:04:57.793Z,100660.82
2018-11-29T23:07:29.018Z,100648.20
2018-11-29T23:10:00.348Z,100650.91
2018-11-29T23:12:31.026Z,100645.11
2018-11-29T23:15:02.339Z,100649.38
2018-11-29T23:17:33.166Z,100637.83
2018-11-29T23:20:05.674Z,100632.38
2018-11-29T23:22:36.437Z,100634.62
2018-11-29T23:25:10.421Z,100640.95
2018-11-29T23:27:40.473Z,100633.22
2018-11-29T23:30:16.846Z,100640.20
2018-11-29T23:32:47.122Z,100646.06
2018-11-29T23:35:17.494Z,100650.50
2018-11-29T23:37:50.338Z,100661.47
2018-11-29T23:40:20.576Z,100651.28
2018-11-29T23:42:50.632Z,100656.20
2018-11-29T23:45:21.954Z,100652.39
2018-11-29T23:47:52.837Z,100650.27
2018-11-29T23:50:23.786Z,100661.47
2018-11-29T23:52:55.087Z,100659.18
2018-11-29T23:55:26.237Z,100653.97
2018-11-29T23:57:56.322Z,100653.61
